<?xml version="1.0" encoding="UTF-8" standalone="no" ?>
<gpx xmlns="http://www.topografix.com/GPX/1/1" xmlns:xsi="http://www.w3.org/2001/XMLSchema-instance" xsi:schemaLocation="http://www.topografix.com/GPX/1/1 http://www.topografix.com/GPX/1/1/gpx.xsd" version="1.1" creator="VisuGPX - https://www.visugpx.com">
  <metadata>
    <name>Rando Vtt Baud 12-01-13</name>
    <desc><![CDATA[Vive la thalasso]]></desc>
  </metadata>
  <wpt lat="38.85555" lon="-94.79902">
    <ele>3.01</ele>
    <name><![CDATA[GARMIN]]></name>
  </wpt>
  <wpt lat="50.98288" lon="-1.4639">
    <ele>3.01</ele>
    <name><![CDATA[GRMEUR]]></name>
  </wpt>
  <wpt lat="25.06178" lon="121.64027">
    <ele>3.01</ele>
    <name><![CDATA[GRMTWN]]></name>
  </wpt>
  <trk>
    <name><![CDATA[ACTIVE LOG: 12 JAN 2013 13:52]]></name>
    <trkseg>
      <trkpt lat="47.88638" lon="-3.02958">
        <ele>125.59</ele>
        <time>2013-01-12T12:52:30Z</time>
      </trkpt>
      <trkpt lat="47.88637" lon="-3.02954">
        <ele>130.4</ele>
        <time>2013-01-12T12:52:36Z</time>
      </trkpt>
      <trkpt lat="47.88636" lon="-3.02948">
        <ele>126.07</ele>
        <time>2013-01-12T12:52:44Z</time>
      </trkpt>
      <trkpt lat="47.8864" lon="-3.0294">
        <ele>127.03</ele>
        <time>2013-01-12T12:52:48Z</time>
      </trkpt>
      <trkpt lat="47.88648" lon="-3.02924">
        <ele>127.03</ele>
        <time>2013-01-12T12:52:54Z</time>
      </trkpt>
      <trkpt lat="47.88663" lon="-3.02918">
        <ele>124.63</ele>
        <time>2013-01-12T12:53:01Z</time>
      </trkpt>
      <trkpt lat="47.8867" lon="-3.02914">
        <ele>123.67</ele>
        <time>2013-01-12T12:53:04Z</time>
      </trkpt>
      <trkpt lat="47.88676" lon="-3.02906">
        <ele>123.19</ele>
        <time>2013-01-12T12:53:08Z</time>
      </trkpt>
      <trkpt lat="47.88689" lon="-3.02935">
        <ele>120.78</ele>
        <time>2013-01-12T12:53:21Z</time>
      </trkpt>
      <trkpt lat="47.88702" lon="-3.02956">
        <ele>116.94</ele>
        <time>2013-01-12T12:53:29Z</time>
      </trkpt>
      <trkpt lat="47.8871" lon="-3.02957">
        <ele>117.42</ele>
        <time>2013-01-12T12:53:32Z</time>
      </trkpt>
      <trkpt lat="47.88729" lon="-3.02945">
        <ele>118.86</ele>
        <time>2013-01-12T12:53:44Z</time>
      </trkpt>
      <trkpt lat="47.88731" lon="-3.02915">
        <ele>122.71</ele>
        <time>2013-01-12T12:53:54Z</time>
      </trkpt>
      <trkpt lat="47.88736" lon="-3.02891">
        <ele>124.63</ele>
        <time>2013-01-12T12:54:01Z</time>
      </trkpt>
      <trkpt lat="47.88766" lon="-3.02883">
        <ele>125.59</ele>
        <time>2013-01-12T12:54:12Z</time>
      </trkpt>
      <trkpt lat="47.88767" lon="-3.02877">
        <ele>126.55</ele>
        <time>2013-01-12T12:54:13Z</time>
      </trkpt>
      <trkpt lat="47.88777" lon="-3.02873">
        <ele>129.43</ele>
        <time>2013-01-12T12:54:18Z</time>
      </trkpt>
      <trkpt lat="47.88797" lon="-3.02846">
        <ele>137.61</ele>
        <time>2013-01-12T12:54:26Z</time>
      </trkpt>
      <trkpt lat="47.88805" lon="-3.02847">
        <ele>139.05</ele>
        <time>2013-01-12T12:54:29Z</time>
      </trkpt>
      <trkpt lat="47.88836" lon="-3.02805">
        <ele>141.45</ele>
        <time>2013-01-12T12:54:40Z</time>
      </trkpt>
      <trkpt lat="47.88824" lon="-3.0277">
        <ele>142.41</ele>
        <time>2013-01-12T12:54:50Z</time>
      </trkpt>
      <trkpt lat="47.88803" lon="-3.02753">
        <ele>140.97</ele>
        <time>2013-01-12T12:55:02Z</time>
      </trkpt>
      <trkpt lat="47.88787" lon="-3.02773">
        <ele>140.97</ele>
        <time>2013-01-12T12:55:13Z</time>
      </trkpt>
      <trkpt lat="47.88785" lon="-3.02774">
        <ele>138.57</ele>
        <time>2013-01-12T12:55:20Z</time>
      </trkpt>
      <trkpt lat="47.88778" lon="-3.02763">
        <ele>139.53</ele>
        <time>2013-01-12T12:55:25Z</time>
      </trkpt>
      <trkpt lat="47.88773" lon="-3.02761">
        <ele>140.49</ele>
        <time>2013-01-12T12:55:29Z</time>
      </trkpt>
      <trkpt lat="47.88776" lon="-3.02756">
        <ele>142.41</ele>
        <time>2013-01-12T12:55:36Z</time>
      </trkpt>
      <trkpt lat="47.88775" lon="-3.02761">
        <ele>144.34</ele>
        <time>2013-01-12T12:55:59Z</time>
      </trkpt>
      <trkpt lat="47.8878" lon="-3.02763">
        <ele>144.82</ele>
        <time>2013-01-12T12:56:25Z</time>
      </trkpt>
      <trkpt lat="47.88756" lon="-3.02721">
        <ele>142.89</ele>
        <time>2013-01-12T12:56:38Z</time>
      </trkpt>
      <trkpt lat="47.8875" lon="-3.02684">
        <ele>137.61</ele>
        <time>2013-01-12T12:56:49Z</time>
      </trkpt>
      <trkpt lat="47.88726" lon="-3.02652">
        <ele>129.43</ele>
        <time>2013-01-12T12:57:00Z</time>
      </trkpt>
      <trkpt lat="47.88697" lon="-3.0265">
        <ele>123.67</ele>
        <time>2013-01-12T12:57:11Z</time>
      </trkpt>
      <trkpt lat="47.88669" lon="-3.02665">
        <ele>124.15</ele>
        <time>2013-01-12T12:57:24Z</time>
      </trkpt>
      <trkpt lat="47.88651" lon="-3.02642">
        <ele>113.57</ele>
        <time>2013-01-12T12:57:37Z</time>
      </trkpt>
      <trkpt lat="47.8863" lon="-3.02618">
        <ele>111.17</ele>
        <time>2013-01-12T12:57:53Z</time>
      </trkpt>
      <trkpt lat="47.88625" lon="-3.02614">
        <ele>114.53</ele>
        <time>2013-01-12T12:58:04Z</time>
      </trkpt>
      <trkpt lat="47.88623" lon="-3.02616">
        <ele>114.53</ele>
        <time>2013-01-12T12:58:42Z</time>
      </trkpt>
      <trkpt lat="47.88597" lon="-3.02644">
        <ele>116.46</ele>
        <time>2013-01-12T12:58:55Z</time>
      </trkpt>
      <trkpt lat="47.88583" lon="-3.02678">
        <ele>117.9</ele>
        <time>2013-01-12T12:59:10Z</time>
      </trkpt>
      <trkpt lat="47.88581" lon="-3.0269">
        <ele>116.94</ele>
        <time>2013-01-12T12:59:22Z</time>
      </trkpt>
      <trkpt lat="47.88572" lon="-3.02704">
        <ele>116.94</ele>
        <time>2013-01-12T12:59:41Z</time>
      </trkpt>
      <trkpt lat="47.88569" lon="-3.02706">
        <ele>117.9</ele>
        <time>2013-01-12T12:59:58Z</time>
      </trkpt>
      <trkpt lat="47.88564" lon="-3.02698">
        <ele>116.94</ele>
        <time>2013-01-12T13:00:29Z</time>
      </trkpt>
      <trkpt lat="47.88546" lon="-3.02666">
        <ele>115.5</ele>
        <time>2013-01-12T13:00:45Z</time>
      </trkpt>
      <trkpt lat="47.88526" lon="-3.02648">
        <ele>113.09</ele>
        <time>2013-01-12T13:00:59Z</time>
      </trkpt>
      <trkpt lat="47.8852" lon="-3.02642">
        <ele>112.61</ele>
        <time>2013-01-12T13:01:03Z</time>
      </trkpt>
      <trkpt lat="47.88521" lon="-3.02615">
        <ele>110.21</ele>
        <time>2013-01-12T13:01:13Z</time>
      </trkpt>
      <trkpt lat="47.88508" lon="-3.02597">
        <ele>110.21</ele>
        <time>2013-01-12T13:01:23Z</time>
      </trkpt>
      <trkpt lat="47.88494" lon="-3.02589">
        <ele>111.17</ele>
        <time>2013-01-12T13:01:33Z</time>
      </trkpt>
      <trkpt lat="47.88473" lon="-3.02571">
        <ele>111.17</ele>
        <time>2013-01-12T13:01:47Z</time>
      </trkpt>
      <trkpt lat="47.88453" lon="-3.02559">
        <ele>113.09</ele>
        <time>2013-01-12T13:02:01Z</time>
      </trkpt>
      <trkpt lat="47.88434" lon="-3.02544">
        <ele>113.09</ele>
        <time>2013-01-12T13:02:13Z</time>
      </trkpt>
      <trkpt lat="47.88426" lon="-3.02548">
        <ele>115.98</ele>
        <time>2013-01-12T13:02:31Z</time>
      </trkpt>
      <trkpt lat="47.88424" lon="-3.02551">
        <ele>116.46</ele>
        <time>2013-01-12T13:02:37Z</time>
      </trkpt>
      <trkpt lat="47.88417" lon="-3.02569">
        <ele>117.42</ele>
        <time>2013-01-12T13:02:49Z</time>
      </trkpt>
      <trkpt lat="47.88417" lon="-3.02571">
        <ele>117.42</ele>
        <time>2013-01-12T13:03:07Z</time>
      </trkpt>
      <trkpt lat="47.88417" lon="-3.0257">
        <ele>117.42</ele>
        <time>2013-01-12T13:04:13Z</time>
      </trkpt>
      <trkpt lat="47.88392" lon="-3.02568">
        <ele>115.01</ele>
        <time>2013-01-12T13:04:27Z</time>
      </trkpt>
      <trkpt lat="47.8837" lon="-3.0258">
        <ele>112.61</ele>
        <time>2013-01-12T13:04:39Z</time>
      </trkpt>
      <trkpt lat="47.88347" lon="-3.02617">
        <ele>119.82</ele>
        <time>2013-01-12T13:04:55Z</time>
      </trkpt>
      <trkpt lat="47.88355" lon="-3.02649">
        <ele>122.22</ele>
        <time>2013-01-12T13:05:10Z</time>
      </trkpt>
      <trkpt lat="47.88368" lon="-3.02661">
        <ele>122.22</ele>
        <time>2013-01-12T13:05:20Z</time>
      </trkpt>
      <trkpt lat="47.88382" lon="-3.0267">
        <ele>121.26</ele>
        <time>2013-01-12T13:05:30Z</time>
      </trkpt>
      <trkpt lat="47.8842" lon="-3.02677">
        <ele>122.22</ele>
        <time>2013-01-12T13:05:49Z</time>
      </trkpt>
      <trkpt lat="47.88445" lon="-3.02708">
        <ele>122.71</ele>
        <time>2013-01-12T13:06:05Z</time>
      </trkpt>
      <trkpt lat="47.88467" lon="-3.02749">
        <ele>122.71</ele>
        <time>2013-01-12T13:06:23Z</time>
      </trkpt>
      <trkpt lat="47.88462" lon="-3.02758">
        <ele>124.63</ele>
        <time>2013-01-12T13:06:36Z</time>
      </trkpt>
      <trkpt lat="47.88454" lon="-3.02762">
        <ele>125.11</ele>
        <time>2013-01-12T13:06:52Z</time>
      </trkpt>
      <trkpt lat="47.88451" lon="-3.02766">
        <ele>125.11</ele>
        <time>2013-01-12T13:07:00Z</time>
      </trkpt>
      <trkpt lat="47.88425" lon="-3.02739">
        <ele>123.67</ele>
        <time>2013-01-12T13:07:12Z</time>
      </trkpt>
      <trkpt lat="47.8838" lon="-3.02685">
        <ele>121.74</ele>
        <time>2013-01-12T13:07:26Z</time>
      </trkpt>
      <trkpt lat="47.88364" lon="-3.02669">
        <ele>121.74</ele>
        <time>2013-01-12T13:07:30Z</time>
      </trkpt>
      <trkpt lat="47.88342" lon="-3.02682">
        <ele>123.67</ele>
        <time>2013-01-12T13:07:37Z</time>
      </trkpt>
      <trkpt lat="47.88342" lon="-3.0269">
        <ele>124.15</ele>
        <time>2013-01-12T13:07:39Z</time>
      </trkpt>
      <trkpt lat="47.88329" lon="-3.0277">
        <ele>128.47</ele>
        <time>2013-01-12T13:08:01Z</time>
      </trkpt>
      <trkpt lat="47.88317" lon="-3.02831">
        <ele>129.92</ele>
        <time>2013-01-12T13:08:20Z</time>
      </trkpt>
      <trkpt lat="47.8832" lon="-3.02868">
        <ele>129.43</ele>
        <time>2013-01-12T13:08:36Z</time>
      </trkpt>
      <trkpt lat="47.88316" lon="-3.02901">
        <ele>127.51</ele>
        <time>2013-01-12T13:08:55Z</time>
      </trkpt>
      <trkpt lat="47.88307" lon="-3.02919">
        <ele>124.15</ele>
        <time>2013-01-12T13:09:01Z</time>
      </trkpt>
      <trkpt lat="47.88291" lon="-3.02928">
        <ele>121.74</ele>
        <time>2013-01-12T13:09:05Z</time>
      </trkpt>
      <trkpt lat="47.88269" lon="-3.02944">
        <ele>116.94</ele>
        <time>2013-01-12T13:09:09Z</time>
      </trkpt>
      <trkpt lat="47.88253" lon="-3.02953">
        <ele>114.53</ele>
        <time>2013-01-12T13:09:12Z</time>
      </trkpt>
      <trkpt lat="47.88227" lon="-3.02999">
        <ele>106.36</ele>
        <time>2013-01-12T13:09:21Z</time>
      </trkpt>
      <trkpt lat="47.88213" lon="-3.03018">
        <ele>105.88</ele>
        <time>2013-01-12T13:09:31Z</time>
      </trkpt>
      <trkpt lat="47.88187" lon="-3.03024">
        <ele>107.32</ele>
        <time>2013-01-12T13:09:42Z</time>
      </trkpt>
      <trkpt lat="47.88178" lon="-3.03064">
        <ele>102.52</ele>
        <time>2013-01-12T13:09:47Z</time>
      </trkpt>
      <trkpt lat="47.88179" lon="-3.03084">
        <ele>100.6</ele>
        <time>2013-01-12T13:09:49Z</time>
      </trkpt>
      <trkpt lat="47.88155" lon="-3.0309">
        <ele>95.31</ele>
        <time>2013-01-12T13:09:55Z</time>
      </trkpt>
      <trkpt lat="47.88149" lon="-3.03084">
        <ele>94.35</ele>
        <time>2013-01-12T13:09:56Z</time>
      </trkpt>
      <trkpt lat="47.88108" lon="-3.03025">
        <ele>88.1</ele>
        <time>2013-01-12T13:10:04Z</time>
      </trkpt>
      <trkpt lat="47.88081" lon="-3.02992">
        <ele>82.33</ele>
        <time>2013-01-12T13:10:12Z</time>
      </trkpt>
      <trkpt lat="47.88074" lon="-3.03045">
        <ele>79.45</ele>
        <time>2013-01-12T13:10:22Z</time>
      </trkpt>
      <trkpt lat="47.88063" lon="-3.03041">
        <ele>78</ele>
        <time>2013-01-12T13:10:26Z</time>
      </trkpt>
      <trkpt lat="47.88054" lon="-3.03043">
        <ele>77.52</ele>
        <time>2013-01-12T13:10:34Z</time>
      </trkpt>
      <trkpt lat="47.88023" lon="-3.03055">
        <ele>79.93</ele>
        <time>2013-01-12T13:10:50Z</time>
      </trkpt>
      <trkpt lat="47.87962" lon="-3.03075">
        <ele>70.79</ele>
        <time>2013-01-12T13:10:59Z</time>
      </trkpt>
      <trkpt lat="47.87789" lon="-3.03131">
        <ele>59.74</ele>
        <time>2013-01-12T13:11:20Z</time>
      </trkpt>
      <trkpt lat="47.87765" lon="-3.03144">
        <ele>57.82</ele>
        <time>2013-01-12T13:11:29Z</time>
      </trkpt>
      <trkpt lat="47.87738" lon="-3.03154">
        <ele>50.13</ele>
        <time>2013-01-12T13:11:40Z</time>
      </trkpt>
      <trkpt lat="47.87712" lon="-3.03178">
        <ele>46.76</ele>
        <time>2013-01-12T13:11:55Z</time>
      </trkpt>
      <trkpt lat="47.87694" lon="-3.03179">
        <ele>46.28</ele>
        <time>2013-01-12T13:12:11Z</time>
      </trkpt>
      <trkpt lat="47.87682" lon="-3.03178">
        <ele>45.8</ele>
        <time>2013-01-12T13:12:29Z</time>
      </trkpt>
      <trkpt lat="47.87678" lon="-3.03175">
        <ele>46.28</ele>
        <time>2013-01-12T13:12:33Z</time>
      </trkpt>
      <trkpt lat="47.8767" lon="-3.03172">
        <ele>47.24</ele>
        <time>2013-01-12T13:12:41Z</time>
      </trkpt>
      <trkpt lat="47.87651" lon="-3.03193">
        <ele>49.65</ele>
        <time>2013-01-12T13:13:00Z</time>
      </trkpt>
      <trkpt lat="47.87639" lon="-3.03202">
        <ele>51.09</ele>
        <time>2013-01-12T13:13:19Z</time>
      </trkpt>
      <trkpt lat="47.87622" lon="-3.03224">
        <ele>49.16</ele>
        <time>2013-01-12T13:13:50Z</time>
      </trkpt>
      <trkpt lat="47.8757" lon="-3.03261">
        <ele>44.36</ele>
        <time>2013-01-12T13:14:06Z</time>
      </trkpt>
      <trkpt lat="47.87531" lon="-3.03287">
        <ele>42.44</ele>
        <time>2013-01-12T13:14:20Z</time>
      </trkpt>
      <trkpt lat="47.87528" lon="-3.03333">
        <ele>41.47</ele>
        <time>2013-01-12T13:14:32Z</time>
      </trkpt>
      <trkpt lat="47.87534" lon="-3.03401">
        <ele>46.28</ele>
        <time>2013-01-12T13:14:50Z</time>
      </trkpt>
      <trkpt lat="47.87539" lon="-3.0345">
        <ele>50.13</ele>
        <time>2013-01-12T13:15:06Z</time>
      </trkpt>
      <trkpt lat="47.87543" lon="-3.03482">
        <ele>48.2</ele>
        <time>2013-01-12T13:15:17Z</time>
      </trkpt>
      <trkpt lat="47.87543" lon="-3.03487">
        <ele>46.76</ele>
        <time>2013-01-12T13:15:19Z</time>
      </trkpt>
      <trkpt lat="47.87542" lon="-3.03517">
        <ele>46.28</ele>
        <time>2013-01-12T13:15:32Z</time>
      </trkpt>
      <trkpt lat="47.87517" lon="-3.03538">
        <ele>47.72</ele>
        <time>2013-01-12T13:15:43Z</time>
      </trkpt>
      <trkpt lat="47.87491" lon="-3.03548">
        <ele>47.24</ele>
        <time>2013-01-12T13:15:52Z</time>
      </trkpt>
      <trkpt lat="47.87491" lon="-3.03548">
        <ele>47.72</ele>
        <time>2013-01-12T13:17:18Z</time>
      </trkpt>
      <trkpt lat="47.8748" lon="-3.03549">
        <ele>46.76</ele>
        <time>2013-01-12T13:17:21Z</time>
      </trkpt>
      <trkpt lat="47.87453" lon="-3.03543">
        <ele>43.4</ele>
        <time>2013-01-12T13:17:25Z</time>
      </trkpt>
      <trkpt lat="47.87377" lon="-3.03492">
        <ele>38.11</ele>
        <time>2013-01-12T13:17:34Z</time>
      </trkpt>
      <trkpt lat="47.87351" lon="-3.03498">
        <ele>39.55</ele>
        <time>2013-01-12T13:17:40Z</time>
      </trkpt>
      <trkpt lat="47.87344" lon="-3.0355">
        <ele>41.47</ele>
        <time>2013-01-12T13:17:56Z</time>
      </trkpt>
      <trkpt lat="47.87343" lon="-3.0362">
        <ele>45.8</ele>
        <time>2013-01-12T13:18:20Z</time>
      </trkpt>
      <trkpt lat="47.87343" lon="-3.03698">
        <ele>50.13</ele>
        <time>2013-01-12T13:18:43Z</time>
      </trkpt>
      <trkpt lat="47.87345" lon="-3.03787">
        <ele>53.01</ele>
        <time>2013-01-12T13:19:07Z</time>
      </trkpt>
      <trkpt lat="47.87354" lon="-3.03845">
        <ele>56.37</ele>
        <time>2013-01-12T13:19:25Z</time>
      </trkpt>
      <trkpt lat="47.87363" lon="-3.03888">
        <ele>61.66</ele>
        <time>2013-01-12T13:19:40Z</time>
      </trkpt>
      <trkpt lat="47.87368" lon="-3.03929">
        <ele>64.07</ele>
        <time>2013-01-12T13:19:54Z</time>
      </trkpt>
      <trkpt lat="47.87377" lon="-3.03975">
        <ele>71.76</ele>
        <time>2013-01-12T13:20:11Z</time>
      </trkpt>
      <trkpt lat="47.8738" lon="-3.04012">
        <ele>77.04</ele>
        <time>2013-01-12T13:20:24Z</time>
      </trkpt>
      <trkpt lat="47.87384" lon="-3.04067">
        <ele>84.73</ele>
        <time>2013-01-12T13:20:40Z</time>
      </trkpt>
      <trkpt lat="47.87387" lon="-3.04122">
        <ele>89.06</ele>
        <time>2013-01-12T13:20:56Z</time>
      </trkpt>
      <trkpt lat="47.87386" lon="-3.04166">
        <ele>90.02</ele>
        <time>2013-01-12T13:21:12Z</time>
      </trkpt>
      <trkpt lat="47.87387" lon="-3.04166">
        <ele>89.06</ele>
        <time>2013-01-12T13:21:45Z</time>
      </trkpt>
      <trkpt lat="47.87388" lon="-3.04166">
        <ele>86.66</ele>
        <time>2013-01-12T13:22:14Z</time>
      </trkpt>
      <trkpt lat="47.87392" lon="-3.04198">
        <ele>81.85</ele>
        <time>2013-01-12T13:22:55Z</time>
      </trkpt>
      <trkpt lat="47.87401" lon="-3.04313">
        <ele>74.64</ele>
        <time>2013-01-12T13:23:14Z</time>
      </trkpt>
      <trkpt lat="47.87396" lon="-3.04335">
        <ele>73.68</ele>
        <time>2013-01-12T13:23:20Z</time>
      </trkpt>
      <trkpt lat="47.87359" lon="-3.04341">
        <ele>72.72</ele>
        <time>2013-01-12T13:23:35Z</time>
      </trkpt>
      <trkpt lat="47.87292" lon="-3.04348">
        <ele>69.35</ele>
        <time>2013-01-12T13:23:56Z</time>
      </trkpt>
      <trkpt lat="47.87283" lon="-3.04383">
        <ele>66.95</ele>
        <time>2013-01-12T13:24:02Z</time>
      </trkpt>
      <trkpt lat="47.8727" lon="-3.04552">
        <ele>59.74</ele>
        <time>2013-01-12T13:24:23Z</time>
      </trkpt>
      <trkpt lat="47.87259" lon="-3.04697">
        <ele>56.86</ele>
        <time>2013-01-12T13:24:43Z</time>
      </trkpt>
      <trkpt lat="47.87247" lon="-3.04727">
        <ele>55.41</ele>
        <time>2013-01-12T13:24:50Z</time>
      </trkpt>
      <trkpt lat="47.87175" lon="-3.04779">
        <ele>48.2</ele>
        <time>2013-01-12T13:25:03Z</time>
      </trkpt>
      <trkpt lat="47.8709" lon="-3.04841">
        <ele>37.63</ele>
        <time>2013-01-12T13:25:13Z</time>
      </trkpt>
      <trkpt lat="47.86995" lon="-3.04857">
        <ele>29.94</ele>
        <time>2013-01-12T13:25:23Z</time>
      </trkpt>
      <trkpt lat="47.86965" lon="-3.04875">
        <ele>27.53</ele>
        <time>2013-01-12T13:25:30Z</time>
      </trkpt>
      <trkpt lat="47.86981" lon="-3.04939">
        <ele>27.05</ele>
        <time>2013-01-12T13:25:46Z</time>
      </trkpt>
      <trkpt lat="47.86994" lon="-3.05002">
        <ele>28.5</ele>
        <time>2013-01-12T13:26:00Z</time>
      </trkpt>
      <trkpt lat="47.86996" lon="-3.05014">
        <ele>28.98</ele>
        <time>2013-01-12T13:26:02Z</time>
      </trkpt>
      <trkpt lat="47.87013" lon="-3.05103">
        <ele>35.23</ele>
        <time>2013-01-12T13:26:19Z</time>
      </trkpt>
      <trkpt lat="47.87029" lon="-3.05171">
        <ele>29.94</ele>
        <time>2013-01-12T13:26:33Z</time>
      </trkpt>
      <trkpt lat="47.87037" lon="-3.05215">
        <ele>32.82</ele>
        <time>2013-01-12T13:26:41Z</time>
      </trkpt>
      <trkpt lat="47.87046" lon="-3.05289">
        <ele>37.63</ele>
        <time>2013-01-12T13:26:54Z</time>
      </trkpt>
      <trkpt lat="47.87061" lon="-3.05367">
        <ele>41.95</ele>
        <time>2013-01-12T13:27:08Z</time>
      </trkpt>
      <trkpt lat="47.87064" lon="-3.05372">
        <ele>40.51</ele>
        <time>2013-01-12T13:27:09Z</time>
      </trkpt>
      <trkpt lat="47.87067" lon="-3.05382">
        <ele>40.03</ele>
        <time>2013-01-12T13:27:11Z</time>
      </trkpt>
      <trkpt lat="47.8709" lon="-3.05399">
        <ele>38.59</ele>
        <time>2013-01-12T13:27:17Z</time>
      </trkpt>
      <trkpt lat="47.87116" lon="-3.05411">
        <ele>38.59</ele>
        <time>2013-01-12T13:27:24Z</time>
      </trkpt>
      <trkpt lat="47.87164" lon="-3.05438">
        <ele>39.07</ele>
        <time>2013-01-12T13:27:37Z</time>
      </trkpt>
      <trkpt lat="47.87188" lon="-3.0546">
        <ele>42.44</ele>
        <time>2013-01-12T13:27:46Z</time>
      </trkpt>
      <trkpt lat="47.8719" lon="-3.05484">
        <ele>44.36</ele>
        <time>2013-01-12T13:27:53Z</time>
      </trkpt>
      <trkpt lat="47.87182" lon="-3.05519">
        <ele>35.71</ele>
        <time>2013-01-12T13:28:08Z</time>
      </trkpt>
      <trkpt lat="47.87183" lon="-3.05522">
        <ele>35.23</ele>
        <time>2013-01-12T13:28:09Z</time>
      </trkpt>
      <trkpt lat="47.87207" lon="-3.0555">
        <ele>39.55</ele>
        <time>2013-01-12T13:28:23Z</time>
      </trkpt>
      <trkpt lat="47.87229" lon="-3.05574">
        <ele>39.07</ele>
        <time>2013-01-12T13:28:35Z</time>
      </trkpt>
      <trkpt lat="47.87235" lon="-3.05611">
        <ele>40.03</ele>
        <time>2013-01-12T13:28:49Z</time>
      </trkpt>
      <trkpt lat="47.87236" lon="-3.05643">
        <ele>42.44</ele>
        <time>2013-01-12T13:29:01Z</time>
      </trkpt>
      <trkpt lat="47.87234" lon="-3.05679">
        <ele>47.72</ele>
        <time>2013-01-12T13:29:15Z</time>
      </trkpt>
      <trkpt lat="47.87242" lon="-3.05724">
        <ele>49.16</ele>
        <time>2013-01-12T13:29:31Z</time>
      </trkpt>
      <trkpt lat="47.87254" lon="-3.05758">
        <ele>48.68</ele>
        <time>2013-01-12T13:29:44Z</time>
      </trkpt>
      <trkpt lat="47.8727" lon="-3.05788">
        <ele>45.32</ele>
        <time>2013-01-12T13:29:58Z</time>
      </trkpt>
      <trkpt lat="47.87293" lon="-3.05789">
        <ele>43.88</ele>
        <time>2013-01-12T13:30:12Z</time>
      </trkpt>
      <trkpt lat="47.87323" lon="-3.05788">
        <ele>42.44</ele>
        <time>2013-01-12T13:30:28Z</time>
      </trkpt>
      <trkpt lat="47.87359" lon="-3.05786">
        <ele>41.47</ele>
        <time>2013-01-12T13:30:43Z</time>
      </trkpt>
      <trkpt lat="47.87406" lon="-3.05784">
        <ele>39.55</ele>
        <time>2013-01-12T13:30:58Z</time>
      </trkpt>
      <trkpt lat="47.87483" lon="-3.05777">
        <ele>39.07</ele>
        <time>2013-01-12T13:31:17Z</time>
      </trkpt>
      <trkpt lat="47.87549" lon="-3.05787">
        <ele>44.36</ele>
        <time>2013-01-12T13:31:34Z</time>
      </trkpt>
      <trkpt lat="47.87601" lon="-3.05802">
        <ele>49.65</ele>
        <time>2013-01-12T13:31:52Z</time>
      </trkpt>
      <trkpt lat="47.87638" lon="-3.05813">
        <ele>53.49</ele>
        <time>2013-01-12T13:32:12Z</time>
      </trkpt>
      <trkpt lat="47.87685" lon="-3.05826">
        <ele>56.86</ele>
        <time>2013-01-12T13:32:38Z</time>
      </trkpt>
      <trkpt lat="47.87738" lon="-3.05838">
        <ele>55.41</ele>
        <time>2013-01-12T13:32:59Z</time>
      </trkpt>
      <trkpt lat="47.878" lon="-3.05857">
        <ele>55.41</ele>
        <time>2013-01-12T13:33:21Z</time>
      </trkpt>
      <trkpt lat="47.87836" lon="-3.05868">
        <ele>56.37</ele>
        <time>2013-01-12T13:33:42Z</time>
      </trkpt>
      <trkpt lat="47.87866" lon="-3.05876">
        <ele>58.3</ele>
        <time>2013-01-12T13:33:59Z</time>
      </trkpt>
      <trkpt lat="47.87888" lon="-3.05877">
        <ele>62.14</ele>
        <time>2013-01-12T13:34:09Z</time>
      </trkpt>
      <trkpt lat="47.8789" lon="-3.05872">
        <ele>62.62</ele>
        <time>2013-01-12T13:34:13Z</time>
      </trkpt>
      <trkpt lat="47.87885" lon="-3.05876">
        <ele>62.14</ele>
        <time>2013-01-12T13:34:19Z</time>
      </trkpt>
      <trkpt lat="47.87887" lon="-3.05881">
        <ele>62.14</ele>
        <time>2013-01-12T13:34:35Z</time>
      </trkpt>
      <trkpt lat="47.87887" lon="-3.05881">
        <ele>62.62</ele>
        <time>2013-01-12T13:34:56Z</time>
      </trkpt>
      <trkpt lat="47.87904" lon="-3.05839">
        <ele>63.1</ele>
        <time>2013-01-12T13:35:08Z</time>
      </trkpt>
      <trkpt lat="47.87919" lon="-3.05805">
        <ele>64.07</ele>
        <time>2013-01-12T13:35:23Z</time>
      </trkpt>
      <trkpt lat="47.87924" lon="-3.05803">
        <ele>64.07</ele>
        <time>2013-01-12T13:35:48Z</time>
      </trkpt>
      <trkpt lat="47.87924" lon="-3.05803">
        <ele>64.07</ele>
        <time>2013-01-12T13:35:51Z</time>
      </trkpt>
      <trkpt lat="47.87937" lon="-3.05806">
        <ele>64.55</ele>
        <time>2013-01-12T13:35:59Z</time>
      </trkpt>
      <trkpt lat="47.87971" lon="-3.05815">
        <ele>65.99</ele>
        <time>2013-01-12T13:36:18Z</time>
      </trkpt>
      <trkpt lat="47.87998" lon="-3.05827">
        <ele>66.47</ele>
        <time>2013-01-12T13:36:29Z</time>
      </trkpt>
      <trkpt lat="47.88031" lon="-3.05828">
        <ele>66.47</ele>
        <time>2013-01-12T13:36:44Z</time>
      </trkpt>
      <trkpt lat="47.88077" lon="-3.05828">
        <ele>65.99</ele>
        <time>2013-01-12T13:37:04Z</time>
      </trkpt>
      <trkpt lat="47.88104" lon="-3.05827">
        <ele>65.03</ele>
        <time>2013-01-12T13:37:17Z</time>
      </trkpt>
      <trkpt lat="47.88129" lon="-3.05828">
        <ele>65.99</ele>
        <time>2013-01-12T13:37:30Z</time>
      </trkpt>
      <trkpt lat="47.8816" lon="-3.05833">
        <ele>64.07</ele>
        <time>2013-01-12T13:37:45Z</time>
      </trkpt>
      <trkpt lat="47.88179" lon="-3.0587">
        <ele>65.99</ele>
        <time>2013-01-12T13:37:59Z</time>
      </trkpt>
      <trkpt lat="47.88214" lon="-3.05911">
        <ele>68.87</ele>
        <time>2013-01-12T13:38:20Z</time>
      </trkpt>
      <trkpt lat="47.8825" lon="-3.05952">
        <ele>68.87</ele>
        <time>2013-01-12T13:38:41Z</time>
      </trkpt>
      <trkpt lat="47.88261" lon="-3.05975">
        <ele>66.47</ele>
        <time>2013-01-12T13:38:52Z</time>
      </trkpt>
      <trkpt lat="47.88262" lon="-3.05977">
        <ele>66.47</ele>
        <time>2013-01-12T13:39:31Z</time>
      </trkpt>
      <trkpt lat="47.88261" lon="-3.05978">
        <ele>66.47</ele>
        <time>2013-01-12T13:41:02Z</time>
      </trkpt>
      <trkpt lat="47.88262" lon="-3.05977">
        <ele>66.47</ele>
        <time>2013-01-12T13:42:08Z</time>
      </trkpt>
      <trkpt lat="47.88261" lon="-3.05977">
        <ele>66.47</ele>
        <time>2013-01-12T13:43:02Z</time>
      </trkpt>
      <trkpt lat="47.88256" lon="-3.06029">
        <ele>59.26</ele>
        <time>2013-01-12T13:43:11Z</time>
      </trkpt>
      <trkpt lat="47.88259" lon="-3.06072">
        <ele>56.37</ele>
        <time>2013-01-12T13:43:15Z</time>
      </trkpt>
      <trkpt lat="47.88281" lon="-3.06172">
        <ele>56.37</ele>
        <time>2013-01-12T13:43:24Z</time>
      </trkpt>
      <trkpt lat="47.88295" lon="-3.06251">
        <ele>63.1</ele>
        <time>2013-01-12T13:43:37Z</time>
      </trkpt>
      <trkpt lat="47.88309" lon="-3.06311">
        <ele>65.51</ele>
        <time>2013-01-12T13:43:50Z</time>
      </trkpt>
      <trkpt lat="47.88372" lon="-3.063">
        <ele>69.35</ele>
        <time>2013-01-12T13:44:15Z</time>
      </trkpt>
      <trkpt lat="47.88416" lon="-3.06289">
        <ele>72.72</ele>
        <time>2013-01-12T13:44:36Z</time>
      </trkpt>
      <trkpt lat="47.88442" lon="-3.06292">
        <ele>75.12</ele>
        <time>2013-01-12T13:44:49Z</time>
      </trkpt>
      <trkpt lat="47.88471" lon="-3.06313">
        <ele>78</ele>
        <time>2013-01-12T13:45:06Z</time>
      </trkpt>
      <trkpt lat="47.88479" lon="-3.06322">
        <ele>78.97</ele>
        <time>2013-01-12T13:45:12Z</time>
      </trkpt>
      <trkpt lat="47.88498" lon="-3.06353">
        <ele>80.41</ele>
        <time>2013-01-12T13:45:28Z</time>
      </trkpt>
      <trkpt lat="47.88522" lon="-3.06418">
        <ele>79.93</ele>
        <time>2013-01-12T13:45:49Z</time>
      </trkpt>
      <trkpt lat="47.88536" lon="-3.06485">
        <ele>77.52</ele>
        <time>2013-01-12T13:46:03Z</time>
      </trkpt>
      <trkpt lat="47.88548" lon="-3.06506">
        <ele>77.52</ele>
        <time>2013-01-12T13:46:07Z</time>
      </trkpt>
      <trkpt lat="47.88568" lon="-3.06565">
        <ele>76.56</ele>
        <time>2013-01-12T13:46:21Z</time>
      </trkpt>
      <trkpt lat="47.88546" lon="-3.06654">
        <ele>71.76</ele>
        <time>2013-01-12T13:46:29Z</time>
      </trkpt>
      <trkpt lat="47.88512" lon="-3.06832">
        <ele>59.74</ele>
        <time>2013-01-12T13:46:42Z</time>
      </trkpt>
      <trkpt lat="47.88506" lon="-3.06928">
        <ele>52.53</ele>
        <time>2013-01-12T13:46:50Z</time>
      </trkpt>
      <trkpt lat="47.88506" lon="-3.06948">
        <ele>50.13</ele>
        <time>2013-01-12T13:46:54Z</time>
      </trkpt>
      <trkpt lat="47.88491" lon="-3.0699">
        <ele>46.28</ele>
        <time>2013-01-12T13:46:59Z</time>
      </trkpt>
      <trkpt lat="47.88423" lon="-3.07135">
        <ele>35.23</ele>
        <time>2013-01-12T13:47:12Z</time>
      </trkpt>
      <trkpt lat="47.88401" lon="-3.072">
        <ele>34.26</ele>
        <time>2013-01-12T13:47:17Z</time>
      </trkpt>
      <trkpt lat="47.88382" lon="-3.07225">
        <ele>37.15</ele>
        <time>2013-01-12T13:47:26Z</time>
      </trkpt>
      <trkpt lat="47.88357" lon="-3.07218">
        <ele>40.51</ele>
        <time>2013-01-12T13:47:37Z</time>
      </trkpt>
      <trkpt lat="47.88313" lon="-3.07207">
        <ele>39.55</ele>
        <time>2013-01-12T13:47:52Z</time>
      </trkpt>
      <trkpt lat="47.88281" lon="-3.07203">
        <ele>41.47</ele>
        <time>2013-01-12T13:48:06Z</time>
      </trkpt>
      <trkpt lat="47.88279" lon="-3.07203">
        <ele>40.99</ele>
        <time>2013-01-12T13:48:12Z</time>
      </trkpt>
      <trkpt lat="47.88254" lon="-3.07245">
        <ele>39.55</ele>
        <time>2013-01-12T13:48:20Z</time>
      </trkpt>
      <trkpt lat="47.88192" lon="-3.07328">
        <ele>37.15</ele>
        <time>2013-01-12T13:48:29Z</time>
      </trkpt>
      <trkpt lat="47.88163" lon="-3.07361">
        <ele>36.67</ele>
        <time>2013-01-12T13:48:34Z</time>
      </trkpt>
      <trkpt lat="47.88146" lon="-3.07417">
        <ele>34.26</ele>
        <time>2013-01-12T13:48:41Z</time>
      </trkpt>
      <trkpt lat="47.88143" lon="-3.07462">
        <ele>33.78</ele>
        <time>2013-01-12T13:48:46Z</time>
      </trkpt>
      <trkpt lat="47.88137" lon="-3.07509">
        <ele>34.26</ele>
        <time>2013-01-12T13:48:52Z</time>
      </trkpt>
      <trkpt lat="47.88145" lon="-3.07566">
        <ele>40.51</ele>
        <time>2013-01-12T13:49:03Z</time>
      </trkpt>
      <trkpt lat="47.88148" lon="-3.07603">
        <ele>46.76</ele>
        <time>2013-01-12T13:49:14Z</time>
      </trkpt>
      <trkpt lat="47.88136" lon="-3.07648">
        <ele>53.49</ele>
        <time>2013-01-12T13:49:29Z</time>
      </trkpt>
      <trkpt lat="47.88121" lon="-3.07703">
        <ele>53.97</ele>
        <time>2013-01-12T13:49:45Z</time>
      </trkpt>
      <trkpt lat="47.881" lon="-3.07754">
        <ele>50.13</ele>
        <time>2013-01-12T13:50:05Z</time>
      </trkpt>
      <trkpt lat="47.88084" lon="-3.07797">
        <ele>48.2</ele>
        <time>2013-01-12T13:50:21Z</time>
      </trkpt>
      <trkpt lat="47.8806" lon="-3.07846">
        <ele>44.84</ele>
        <time>2013-01-12T13:50:38Z</time>
      </trkpt>
      <trkpt lat="47.88051" lon="-3.079">
        <ele>45.8</ele>
        <time>2013-01-12T13:50:50Z</time>
      </trkpt>
      <trkpt lat="47.88046" lon="-3.07984">
        <ele>47.24</ele>
        <time>2013-01-12T13:51:11Z</time>
      </trkpt>
      <trkpt lat="47.88022" lon="-3.08063">
        <ele>45.8</ele>
        <time>2013-01-12T13:51:30Z</time>
      </trkpt>
      <trkpt lat="47.88008" lon="-3.08106">
        <ele>44.36</ele>
        <time>2013-01-12T13:51:37Z</time>
      </trkpt>
      <trkpt lat="47.87976" lon="-3.08185">
        <ele>37.63</ele>
        <time>2013-01-12T13:51:49Z</time>
      </trkpt>
      <trkpt lat="47.87951" lon="-3.08228">
        <ele>31.38</ele>
        <time>2013-01-12T13:51:56Z</time>
      </trkpt>
      <trkpt lat="47.8793" lon="-3.0827">
        <ele>26.57</ele>
        <time>2013-01-12T13:52:02Z</time>
      </trkpt>
      <trkpt lat="47.87903" lon="-3.08328">
        <ele>18.88</ele>
        <time>2013-01-12T13:52:13Z</time>
      </trkpt>
      <trkpt lat="47.87883" lon="-3.0837">
        <ele>15.52</ele>
        <time>2013-01-12T13:52:23Z</time>
      </trkpt>
      <trkpt lat="47.87878" lon="-3.08416">
        <ele>15.52</ele>
        <time>2013-01-12T13:52:29Z</time>
      </trkpt>
      <trkpt lat="47.87885" lon="-3.08482">
        <ele>20.32</ele>
        <time>2013-01-12T13:52:39Z</time>
      </trkpt>
      <trkpt lat="47.87891" lon="-3.08489">
        <ele>20.81</ele>
        <time>2013-01-12T13:52:43Z</time>
      </trkpt>
      <trkpt lat="47.87899" lon="-3.08507">
        <ele>22.73</ele>
        <time>2013-01-12T13:52:56Z</time>
      </trkpt>
      <trkpt lat="47.879" lon="-3.08504">
        <ele>23.69</ele>
        <time>2013-01-12T13:53:16Z</time>
      </trkpt>
      <trkpt lat="47.87917" lon="-3.08458">
        <ele>28.98</ele>
        <time>2013-01-12T13:53:30Z</time>
      </trkpt>
      <trkpt lat="47.87923" lon="-3.08444">
        <ele>29.46</ele>
        <time>2013-01-12T13:53:33Z</time>
      </trkpt>
      <trkpt lat="47.87929" lon="-3.08434">
        <ele>29.46</ele>
        <time>2013-01-12T13:53:35Z</time>
      </trkpt>
      <trkpt lat="47.87971" lon="-3.08359">
        <ele>23.21</ele>
        <time>2013-01-12T13:53:50Z</time>
      </trkpt>
      <trkpt lat="47.87993" lon="-3.0832">
        <ele>20.32</ele>
        <time>2013-01-12T13:54:06Z</time>
      </trkpt>
      <trkpt lat="47.88024" lon="-3.08273">
        <ele>18.4</ele>
        <time>2013-01-12T13:54:26Z</time>
      </trkpt>
      <trkpt lat="47.88057" lon="-3.08222">
        <ele>19.84</ele>
        <time>2013-01-12T13:54:45Z</time>
      </trkpt>
      <trkpt lat="47.88092" lon="-3.08162">
        <ele>18.88</ele>
        <time>2013-01-12T13:55:03Z</time>
      </trkpt>
      <trkpt lat="47.88128" lon="-3.08081">
        <ele>18.4</ele>
        <time>2013-01-12T13:55:23Z</time>
      </trkpt>
      <trkpt lat="47.88155" lon="-3.07982">
        <ele>18.4</ele>
        <time>2013-01-12T13:55:44Z</time>
      </trkpt>
      <trkpt lat="47.88164" lon="-3.07879">
        <ele>18.88</ele>
        <time>2013-01-12T13:56:05Z</time>
      </trkpt>
      <trkpt lat="47.88186" lon="-3.07813">
        <ele>19.84</ele>
        <time>2013-01-12T13:56:19Z</time>
      </trkpt>
      <trkpt lat="47.88234" lon="-3.0773">
        <ele>19.84</ele>
        <time>2013-01-12T13:56:40Z</time>
      </trkpt>
      <trkpt lat="47.88277" lon="-3.07696">
        <ele>20.32</ele>
        <time>2013-01-12T13:56:55Z</time>
      </trkpt>
      <trkpt lat="47.88349" lon="-3.0767">
        <ele>19.36</ele>
        <time>2013-01-12T13:57:16Z</time>
      </trkpt>
      <trkpt lat="47.88447" lon="-3.07632">
        <ele>19.36</ele>
        <time>2013-01-12T13:57:43Z</time>
      </trkpt>
      <trkpt lat="47.88525" lon="-3.07572">
        <ele>19.36</ele>
        <time>2013-01-12T13:58:07Z</time>
      </trkpt>
      <trkpt lat="47.88595" lon="-3.07558">
        <ele>18.88</ele>
        <time>2013-01-12T13:58:26Z</time>
      </trkpt>
      <trkpt lat="47.88647" lon="-3.07568">
        <ele>19.36</ele>
        <time>2013-01-12T13:58:45Z</time>
      </trkpt>
      <trkpt lat="47.88683" lon="-3.07578">
        <ele>18.88</ele>
        <time>2013-01-12T13:58:58Z</time>
      </trkpt>
      <trkpt lat="47.88755" lon="-3.07595">
        <ele>18.88</ele>
        <time>2013-01-12T13:59:20Z</time>
      </trkpt>
      <trkpt lat="47.88838" lon="-3.07615">
        <ele>18.88</ele>
        <time>2013-01-12T13:59:43Z</time>
      </trkpt>
      <trkpt lat="47.88935" lon="-3.07646">
        <ele>18.4</ele>
        <time>2013-01-12T14:00:07Z</time>
      </trkpt>
      <trkpt lat="47.89025" lon="-3.07695">
        <ele>16.96</ele>
        <time>2013-01-12T14:00:31Z</time>
      </trkpt>
      <trkpt lat="47.8905" lon="-3.07714">
        <ele>16.96</ele>
        <time>2013-01-12T14:00:37Z</time>
      </trkpt>
      <trkpt lat="47.89137" lon="-3.07761">
        <ele>16.48</ele>
        <time>2013-01-12T14:00:55Z</time>
      </trkpt>
      <trkpt lat="47.89179" lon="-3.07752">
        <ele>16.96</ele>
        <time>2013-01-12T14:01:06Z</time>
      </trkpt>
      <trkpt lat="47.89218" lon="-3.07739">
        <ele>16.48</ele>
        <time>2013-01-12T14:01:19Z</time>
      </trkpt>
      <trkpt lat="47.89292" lon="-3.07718">
        <ele>18.4</ele>
        <time>2013-01-12T14:01:37Z</time>
      </trkpt>
      <trkpt lat="47.89349" lon="-3.07705">
        <ele>19.36</ele>
        <time>2013-01-12T14:01:51Z</time>
      </trkpt>
      <trkpt lat="47.89397" lon="-3.07696">
        <ele>19.36</ele>
        <time>2013-01-12T14:02:08Z</time>
      </trkpt>
      <trkpt lat="47.89398" lon="-3.0769">
        <ele>20.32</ele>
        <time>2013-01-12T14:02:12Z</time>
      </trkpt>
      <trkpt lat="47.89404" lon="-3.07658">
        <ele>24.17</ele>
        <time>2013-01-12T14:02:26Z</time>
      </trkpt>
      <trkpt lat="47.89418" lon="-3.07652">
        <ele>29.46</ele>
        <time>2013-01-12T14:02:42Z</time>
      </trkpt>
      <trkpt lat="47.89421" lon="-3.07654">
        <ele>28.98</ele>
        <time>2013-01-12T14:02:55Z</time>
      </trkpt>
      <trkpt lat="47.89438" lon="-3.07646">
        <ele>30.42</ele>
        <time>2013-01-12T14:03:08Z</time>
      </trkpt>
      <trkpt lat="47.89402" lon="-3.07637">
        <ele>34.74</ele>
        <time>2013-01-12T14:03:23Z</time>
      </trkpt>
      <trkpt lat="47.8939" lon="-3.07638">
        <ele>37.15</ele>
        <time>2013-01-12T14:03:30Z</time>
      </trkpt>
      <trkpt lat="47.89386" lon="-3.0764">
        <ele>37.63</ele>
        <time>2013-01-12T14:03:32Z</time>
      </trkpt>
      <trkpt lat="47.89349" lon="-3.07643">
        <ele>40.51</ele>
        <time>2013-01-12T14:03:45Z</time>
      </trkpt>
      <trkpt lat="47.89307" lon="-3.07637">
        <ele>43.4</ele>
        <time>2013-01-12T14:03:59Z</time>
      </trkpt>
      <trkpt lat="47.89282" lon="-3.07646">
        <ele>46.28</ele>
        <time>2013-01-12T14:04:10Z</time>
      </trkpt>
      <trkpt lat="47.89252" lon="-3.07644">
        <ele>47.72</ele>
        <time>2013-01-12T14:04:18Z</time>
      </trkpt>
      <trkpt lat="47.89206" lon="-3.07615">
        <ele>39.55</ele>
        <time>2013-01-12T14:04:32Z</time>
      </trkpt>
      <trkpt lat="47.89186" lon="-3.07587">
        <ele>35.23</ele>
        <time>2013-01-12T14:04:47Z</time>
      </trkpt>
      <trkpt lat="47.89173" lon="-3.07557">
        <ele>36.67</ele>
        <time>2013-01-12T14:05:02Z</time>
      </trkpt>
      <trkpt lat="47.89173" lon="-3.07521">
        <ele>38.59</ele>
        <time>2013-01-12T14:05:17Z</time>
      </trkpt>
      <trkpt lat="47.89186" lon="-3.07491">
        <ele>39.55</ele>
        <time>2013-01-12T14:05:31Z</time>
      </trkpt>
      <trkpt lat="47.89201" lon="-3.07459">
        <ele>39.55</ele>
        <time>2013-01-12T14:05:45Z</time>
      </trkpt>
      <trkpt lat="47.89223" lon="-3.07424">
        <ele>40.99</ele>
        <time>2013-01-12T14:06:01Z</time>
      </trkpt>
      <trkpt lat="47.89245" lon="-3.07391">
        <ele>46.76</ele>
        <time>2013-01-12T14:06:16Z</time>
      </trkpt>
      <trkpt lat="47.89269" lon="-3.07351">
        <ele>52.53</ele>
        <time>2013-01-12T14:06:34Z</time>
      </trkpt>
      <trkpt lat="47.89287" lon="-3.07339">
        <ele>58.3</ele>
        <time>2013-01-12T14:06:47Z</time>
      </trkpt>
      <trkpt lat="47.89309" lon="-3.07327">
        <ele>62.62</ele>
        <time>2013-01-12T14:07:01Z</time>
      </trkpt>
      <trkpt lat="47.89336" lon="-3.07312">
        <ele>64.55</ele>
        <time>2013-01-12T14:07:16Z</time>
      </trkpt>
      <trkpt lat="47.89355" lon="-3.07306">
        <ele>65.51</ele>
        <time>2013-01-12T14:07:30Z</time>
      </trkpt>
      <trkpt lat="47.89375" lon="-3.07301">
        <ele>65.03</ele>
        <time>2013-01-12T14:08:00Z</time>
      </trkpt>
      <trkpt lat="47.89414" lon="-3.07299">
        <ele>64.07</ele>
        <time>2013-01-12T14:08:16Z</time>
      </trkpt>
      <trkpt lat="47.89442" lon="-3.07291">
        <ele>59.26</ele>
        <time>2013-01-12T14:08:32Z</time>
      </trkpt>
      <trkpt lat="47.89466" lon="-3.07285">
        <ele>57.34</ele>
        <time>2013-01-12T14:08:48Z</time>
      </trkpt>
      <trkpt lat="47.89492" lon="-3.07287">
        <ele>57.34</ele>
        <time>2013-01-12T14:09:03Z</time>
      </trkpt>
      <trkpt lat="47.89513" lon="-3.07291">
        <ele>64.55</ele>
        <time>2013-01-12T14:09:18Z</time>
      </trkpt>
      <trkpt lat="47.89523" lon="-3.07295">
        <ele>70.79</ele>
        <time>2013-01-12T14:09:32Z</time>
      </trkpt>
      <trkpt lat="47.89546" lon="-3.07301">
        <ele>75.12</ele>
        <time>2013-01-12T14:09:53Z</time>
      </trkpt>
      <trkpt lat="47.89565" lon="-3.07304">
        <ele>76.56</ele>
        <time>2013-01-12T14:10:12Z</time>
      </trkpt>
      <trkpt lat="47.89587" lon="-3.0731">
        <ele>77.04</ele>
        <time>2013-01-12T14:10:25Z</time>
      </trkpt>
      <trkpt lat="47.89616" lon="-3.07321">
        <ele>77.52</ele>
        <time>2013-01-12T14:10:42Z</time>
      </trkpt>
      <trkpt lat="47.89632" lon="-3.07329">
        <ele>78.97</ele>
        <time>2013-01-12T14:10:54Z</time>
      </trkpt>
      <trkpt lat="47.8966" lon="-3.07342">
        <ele>79.45</ele>
        <time>2013-01-12T14:11:12Z</time>
      </trkpt>
      <trkpt lat="47.89675" lon="-3.07347">
        <ele>78.97</ele>
        <time>2013-01-12T14:11:24Z</time>
      </trkpt>
      <trkpt lat="47.8968" lon="-3.07348">
        <ele>78.97</ele>
        <time>2013-01-12T14:11:28Z</time>
      </trkpt>
      <trkpt lat="47.89691" lon="-3.0734">
        <ele>81.85</ele>
        <time>2013-01-12T14:11:48Z</time>
      </trkpt>
      <trkpt lat="47.89694" lon="-3.07337">
        <ele>81.85</ele>
        <time>2013-01-12T14:12:19Z</time>
      </trkpt>
      <trkpt lat="47.89691" lon="-3.07337">
        <ele>80.89</ele>
        <time>2013-01-12T14:15:35Z</time>
      </trkpt>
      <trkpt lat="47.89691" lon="-3.07336">
        <ele>80.41</ele>
        <time>2013-01-12T14:16:42Z</time>
      </trkpt>
      <trkpt lat="47.89657" lon="-3.07291">
        <ele>78.48</ele>
        <time>2013-01-12T14:16:58Z</time>
      </trkpt>
      <trkpt lat="47.89622" lon="-3.07238">
        <ele>82.33</ele>
        <time>2013-01-12T14:17:13Z</time>
      </trkpt>
      <trkpt lat="47.89586" lon="-3.07198">
        <ele>82.81</ele>
        <time>2013-01-12T14:17:27Z</time>
      </trkpt>
      <trkpt lat="47.89541" lon="-3.07184">
        <ele>80.89</ele>
        <time>2013-01-12T14:17:41Z</time>
      </trkpt>
      <trkpt lat="47.89505" lon="-3.07178">
        <ele>77.52</ele>
        <time>2013-01-12T14:17:50Z</time>
      </trkpt>
      <trkpt lat="47.89483" lon="-3.07173">
        <ele>75.12</ele>
        <time>2013-01-12T14:17:54Z</time>
      </trkpt>
      <trkpt lat="47.89382" lon="-3.07146">
        <ele>66.95</ele>
        <time>2013-01-12T14:18:06Z</time>
      </trkpt>
      <trkpt lat="47.89289" lon="-3.07108">
        <ele>66.95</ele>
        <time>2013-01-12T14:18:17Z</time>
      </trkpt>
      <trkpt lat="47.89257" lon="-3.07094">
        <ele>72.72</ele>
        <time>2013-01-12T14:18:30Z</time>
      </trkpt>
      <trkpt lat="47.89222" lon="-3.07098">
        <ele>81.85</ele>
        <time>2013-01-12T14:18:44Z</time>
      </trkpt>
      <trkpt lat="47.89197" lon="-3.07096">
        <ele>86.18</ele>
        <time>2013-01-12T14:18:56Z</time>
      </trkpt>
      <trkpt lat="47.89172" lon="-3.07097">
        <ele>90.5</ele>
        <time>2013-01-12T14:19:07Z</time>
      </trkpt>
      <trkpt lat="47.89138" lon="-3.07097">
        <ele>91.94</ele>
        <time>2013-01-12T14:19:21Z</time>
      </trkpt>
      <trkpt lat="47.89111" lon="-3.07086">
        <ele>93.39</ele>
        <time>2013-01-12T14:19:33Z</time>
      </trkpt>
      <trkpt lat="47.89077" lon="-3.07073">
        <ele>94.35</ele>
        <time>2013-01-12T14:19:49Z</time>
      </trkpt>
      <trkpt lat="47.89047" lon="-3.07062">
        <ele>94.35</ele>
        <time>2013-01-12T14:20:06Z</time>
      </trkpt>
      <trkpt lat="47.89017" lon="-3.0705">
        <ele>94.35</ele>
        <time>2013-01-12T14:20:22Z</time>
      </trkpt>
      <trkpt lat="47.89006" lon="-3.07043">
        <ele>96.27</ele>
        <time>2013-01-12T14:20:37Z</time>
      </trkpt>
      <trkpt lat="47.89006" lon="-3.07036">
        <ele>96.27</ele>
        <time>2013-01-12T14:20:50Z</time>
      </trkpt>
      <trkpt lat="47.8901" lon="-3.07001">
        <ele>96.75</ele>
        <time>2013-01-12T14:21:08Z</time>
      </trkpt>
      <trkpt lat="47.89011" lon="-3.0695">
        <ele>98.67</ele>
        <time>2013-01-12T14:21:26Z</time>
      </trkpt>
      <trkpt lat="47.89013" lon="-3.06876">
        <ele>101.56</ele>
        <time>2013-01-12T14:21:49Z</time>
      </trkpt>
      <trkpt lat="47.89015" lon="-3.06812">
        <ele>105.4</ele>
        <time>2013-01-12T14:22:10Z</time>
      </trkpt>
      <trkpt lat="47.89015" lon="-3.06754">
        <ele>108.29</ele>
        <time>2013-01-12T14:22:31Z</time>
      </trkpt>
      <trkpt lat="47.89016" lon="-3.06706">
        <ele>111.17</ele>
        <time>2013-01-12T14:22:51Z</time>
      </trkpt>
      <trkpt lat="47.89017" lon="-3.06668">
        <ele>112.61</ele>
        <time>2013-01-12T14:23:10Z</time>
      </trkpt>
      <trkpt lat="47.89017" lon="-3.0663">
        <ele>114.53</ele>
        <time>2013-01-12T14:23:29Z</time>
      </trkpt>
      <trkpt lat="47.89018" lon="-3.06602">
        <ele>115.98</ele>
        <time>2013-01-12T14:23:45Z</time>
      </trkpt>
      <trkpt lat="47.8902" lon="-3.06567">
        <ele>117.9</ele>
        <time>2013-01-12T14:24:04Z</time>
      </trkpt>
      <trkpt lat="47.8902" lon="-3.06518">
        <ele>119.82</ele>
        <time>2013-01-12T14:24:27Z</time>
      </trkpt>
      <trkpt lat="47.8902" lon="-3.06476">
        <ele>119.82</ele>
        <time>2013-01-12T14:24:45Z</time>
      </trkpt>
      <trkpt lat="47.89021" lon="-3.06423">
        <ele>119.82</ele>
        <time>2013-01-12T14:25:03Z</time>
      </trkpt>
      <trkpt lat="47.89021" lon="-3.06365">
        <ele>121.74</ele>
        <time>2013-01-12T14:25:21Z</time>
      </trkpt>
      <trkpt lat="47.88992" lon="-3.06347">
        <ele>123.19</ele>
        <time>2013-01-12T14:25:35Z</time>
      </trkpt>
      <trkpt lat="47.8899" lon="-3.06347">
        <ele>123.19</ele>
        <time>2013-01-12T14:25:36Z</time>
      </trkpt>
      <trkpt lat="47.88968" lon="-3.06336">
        <ele>122.71</ele>
        <time>2013-01-12T14:25:46Z</time>
      </trkpt>
      <trkpt lat="47.88916" lon="-3.06295">
        <ele>119.34</ele>
        <time>2013-01-12T14:26:05Z</time>
      </trkpt>
      <trkpt lat="47.88892" lon="-3.06276">
        <ele>118.38</ele>
        <time>2013-01-12T14:26:11Z</time>
      </trkpt>
      <trkpt lat="47.8882" lon="-3.06217">
        <ele>112.61</ele>
        <time>2013-01-12T14:26:23Z</time>
      </trkpt>
      <trkpt lat="47.88804" lon="-3.06205">
        <ele>111.17</ele>
        <time>2013-01-12T14:26:25Z</time>
      </trkpt>
      <trkpt lat="47.88767" lon="-3.06196">
        <ele>108.29</ele>
        <time>2013-01-12T14:26:29Z</time>
      </trkpt>
      <trkpt lat="47.88655" lon="-3.062">
        <ele>100.11</ele>
        <time>2013-01-12T14:26:42Z</time>
      </trkpt>
      <trkpt lat="47.8858" lon="-3.06203">
        <ele>97.23</ele>
        <time>2013-01-12T14:26:53Z</time>
      </trkpt>
      <trkpt lat="47.88566" lon="-3.06173">
        <ele>95.31</ele>
        <time>2013-01-12T14:26:59Z</time>
      </trkpt>
      <trkpt lat="47.88575" lon="-3.06167">
        <ele>95.31</ele>
        <time>2013-01-12T14:27:01Z</time>
      </trkpt>
      <trkpt lat="47.88607" lon="-3.06147">
        <ele>92.9</ele>
        <time>2013-01-12T14:27:14Z</time>
      </trkpt>
      <trkpt lat="47.88632" lon="-3.06123">
        <ele>95.79</ele>
        <time>2013-01-12T14:27:29Z</time>
      </trkpt>
      <trkpt lat="47.88658" lon="-3.06099">
        <ele>99.63</ele>
        <time>2013-01-12T14:27:44Z</time>
      </trkpt>
      <trkpt lat="47.8869" lon="-3.06074">
        <ele>105.4</ele>
        <time>2013-01-12T14:28:02Z</time>
      </trkpt>
      <trkpt lat="47.88708" lon="-3.06038">
        <ele>112.13</ele>
        <time>2013-01-12T14:28:16Z</time>
      </trkpt>
      <trkpt lat="47.88729" lon="-3.05989">
        <ele>110.21</ele>
        <time>2013-01-12T14:28:31Z</time>
      </trkpt>
      <trkpt lat="47.88749" lon="-3.05934">
        <ele>111.17</ele>
        <time>2013-01-12T14:28:47Z</time>
      </trkpt>
      <trkpt lat="47.88775" lon="-3.05862">
        <ele>111.17</ele>
        <time>2013-01-12T14:29:09Z</time>
      </trkpt>
      <trkpt lat="47.88798" lon="-3.058">
        <ele>114.05</ele>
        <time>2013-01-12T14:29:30Z</time>
      </trkpt>
      <trkpt lat="47.88818" lon="-3.05745">
        <ele>116.46</ele>
        <time>2013-01-12T14:29:50Z</time>
      </trkpt>
      <trkpt lat="47.88839" lon="-3.05693">
        <ele>117.9</ele>
        <time>2013-01-12T14:30:11Z</time>
      </trkpt>
      <trkpt lat="47.88853" lon="-3.05656">
        <ele>118.86</ele>
        <time>2013-01-12T14:30:25Z</time>
      </trkpt>
      <trkpt lat="47.88869" lon="-3.05607">
        <ele>118.86</ele>
        <time>2013-01-12T14:30:42Z</time>
      </trkpt>
      <trkpt lat="47.88896" lon="-3.05552">
        <ele>119.82</ele>
        <time>2013-01-12T14:31:01Z</time>
      </trkpt>
      <trkpt lat="47.88917" lon="-3.0551">
        <ele>120.78</ele>
        <time>2013-01-12T14:31:17Z</time>
      </trkpt>
      <trkpt lat="47.88931" lon="-3.05481">
        <ele>121.74</ele>
        <time>2013-01-12T14:31:28Z</time>
      </trkpt>
      <trkpt lat="47.88942" lon="-3.05457">
        <ele>124.63</ele>
        <time>2013-01-12T14:31:43Z</time>
      </trkpt>
      <trkpt lat="47.88953" lon="-3.05429">
        <ele>127.03</ele>
        <time>2013-01-12T14:31:58Z</time>
      </trkpt>
      <trkpt lat="47.88973" lon="-3.05392">
        <ele>131.36</ele>
        <time>2013-01-12T14:32:21Z</time>
      </trkpt>
      <trkpt lat="47.88989" lon="-3.05358">
        <ele>134.72</ele>
        <time>2013-01-12T14:32:38Z</time>
      </trkpt>
      <trkpt lat="47.89006" lon="-3.05323">
        <ele>139.05</ele>
        <time>2013-01-12T14:32:57Z</time>
      </trkpt>
      <trkpt lat="47.89021" lon="-3.05293">
        <ele>141.93</ele>
        <time>2013-01-12T14:33:13Z</time>
      </trkpt>
      <trkpt lat="47.8903" lon="-3.05277">
        <ele>143.37</ele>
        <time>2013-01-12T14:33:21Z</time>
      </trkpt>
      <trkpt lat="47.89047" lon="-3.05255">
        <ele>143.85</ele>
        <time>2013-01-12T14:33:34Z</time>
      </trkpt>
      <trkpt lat="47.89055" lon="-3.05223">
        <ele>145.78</ele>
        <time>2013-01-12T14:33:46Z</time>
      </trkpt>
      <trkpt lat="47.89074" lon="-3.05182">
        <ele>148.66</ele>
        <time>2013-01-12T14:34:02Z</time>
      </trkpt>
      <trkpt lat="47.89099" lon="-3.05121">
        <ele>152.51</ele>
        <time>2013-01-12T14:34:23Z</time>
      </trkpt>
      <trkpt lat="47.89116" lon="-3.05071">
        <ele>152.99</ele>
        <time>2013-01-12T14:34:39Z</time>
      </trkpt>
      <trkpt lat="47.89115" lon="-3.05019">
        <ele>147.22</ele>
        <time>2013-01-12T14:34:55Z</time>
      </trkpt>
      <trkpt lat="47.89109" lon="-3.04979">
        <ele>141.45</ele>
        <time>2013-01-12T14:35:11Z</time>
      </trkpt>
      <trkpt lat="47.89097" lon="-3.04906">
        <ele>138.09</ele>
        <time>2013-01-12T14:35:30Z</time>
      </trkpt>
      <trkpt lat="47.89075" lon="-3.04786">
        <ele>133.28</ele>
        <time>2013-01-12T14:35:48Z</time>
      </trkpt>
      <trkpt lat="47.89048" lon="-3.0463">
        <ele>127.99</ele>
        <time>2013-01-12T14:36:02Z</time>
      </trkpt>
      <trkpt lat="47.89026" lon="-3.04518">
        <ele>128.47</ele>
        <time>2013-01-12T14:36:11Z</time>
      </trkpt>
      <trkpt lat="47.89023" lon="-3.04495">
        <ele>128.95</ele>
        <time>2013-01-12T14:36:14Z</time>
      </trkpt>
      <trkpt lat="47.89026" lon="-3.04471">
        <ele>129.43</ele>
        <time>2013-01-12T14:36:18Z</time>
      </trkpt>
      <trkpt lat="47.89044" lon="-3.04416">
        <ele>131.84</ele>
        <time>2013-01-12T14:36:29Z</time>
      </trkpt>
      <trkpt lat="47.8907" lon="-3.04335">
        <ele>133.28</ele>
        <time>2013-01-12T14:36:45Z</time>
      </trkpt>
      <trkpt lat="47.89075" lon="-3.04293">
        <ele>135.68</ele>
        <time>2013-01-12T14:36:57Z</time>
      </trkpt>
      <trkpt lat="47.89077" lon="-3.04239">
        <ele>134.24</ele>
        <time>2013-01-12T14:37:10Z</time>
      </trkpt>
      <trkpt lat="47.8908" lon="-3.0411">
        <ele>130.88</ele>
        <time>2013-01-12T14:37:32Z</time>
      </trkpt>
      <trkpt lat="47.89076" lon="-3.03968">
        <ele>127.99</ele>
        <time>2013-01-12T14:37:55Z</time>
      </trkpt>
      <trkpt lat="47.89067" lon="-3.0388">
        <ele>125.11</ele>
        <time>2013-01-12T14:38:07Z</time>
      </trkpt>
      <trkpt lat="47.89053" lon="-3.03859">
        <ele>125.59</ele>
        <time>2013-01-12T14:38:11Z</time>
      </trkpt>
      <trkpt lat="47.89016" lon="-3.03874">
        <ele>127.51</ele>
        <time>2013-01-12T14:38:22Z</time>
      </trkpt>
      <trkpt lat="47.88967" lon="-3.03886">
        <ele>131.36</ele>
        <time>2013-01-12T14:38:38Z</time>
      </trkpt>
      <trkpt lat="47.8894" lon="-3.03919">
        <ele>132.8</ele>
        <time>2013-01-12T14:38:50Z</time>
      </trkpt>
      <trkpt lat="47.88931" lon="-3.04003">
        <ele>127.51</ele>
        <time>2013-01-12T14:39:06Z</time>
      </trkpt>
      <trkpt lat="47.88921" lon="-3.04103">
        <ele>121.74</ele>
        <time>2013-01-12T14:39:18Z</time>
      </trkpt>
      <trkpt lat="47.88908" lon="-3.04224">
        <ele>113.57</ele>
        <time>2013-01-12T14:39:31Z</time>
      </trkpt>
      <trkpt lat="47.88882" lon="-3.04337">
        <ele>106.36</ele>
        <time>2013-01-12T14:39:42Z</time>
      </trkpt>
      <trkpt lat="47.88871" lon="-3.04365">
        <ele>104.92</ele>
        <time>2013-01-12T14:39:45Z</time>
      </trkpt>
      <trkpt lat="47.88853" lon="-3.04393">
        <ele>102.52</ele>
        <time>2013-01-12T14:39:49Z</time>
      </trkpt>
      <trkpt lat="47.88837" lon="-3.04403">
        <ele>101.56</ele>
        <time>2013-01-12T14:39:52Z</time>
      </trkpt>
      <trkpt lat="47.88777" lon="-3.04431">
        <ele>96.75</ele>
        <time>2013-01-12T14:40:04Z</time>
      </trkpt>
      <trkpt lat="47.88686" lon="-3.04475">
        <ele>91.46</ele>
        <time>2013-01-12T14:40:19Z</time>
      </trkpt>
      <trkpt lat="47.88648" lon="-3.04489">
        <ele>90.02</ele>
        <time>2013-01-12T14:40:25Z</time>
      </trkpt>
      <trkpt lat="47.88604" lon="-3.04493">
        <ele>88.1</ele>
        <time>2013-01-12T14:40:32Z</time>
      </trkpt>
      <trkpt lat="47.88582" lon="-3.04504">
        <ele>89.06</ele>
        <time>2013-01-12T14:40:36Z</time>
      </trkpt>
      <trkpt lat="47.88564" lon="-3.04521">
        <ele>90.5</ele>
        <time>2013-01-12T14:40:40Z</time>
      </trkpt>
      <trkpt lat="47.88505" lon="-3.04585">
        <ele>88.58</ele>
        <time>2013-01-12T14:40:53Z</time>
      </trkpt>
      <trkpt lat="47.88474" lon="-3.04628">
        <ele>89.06</ele>
        <time>2013-01-12T14:41:01Z</time>
      </trkpt>
      <trkpt lat="47.88466" lon="-3.04646">
        <ele>90.02</ele>
        <time>2013-01-12T14:41:04Z</time>
      </trkpt>
      <trkpt lat="47.88453" lon="-3.04706">
        <ele>95.79</ele>
        <time>2013-01-12T14:41:16Z</time>
      </trkpt>
      <trkpt lat="47.88453" lon="-3.04721">
        <ele>96.27</ele>
        <time>2013-01-12T14:41:19Z</time>
      </trkpt>
      <trkpt lat="47.88473" lon="-3.0476">
        <ele>99.15</ele>
        <time>2013-01-12T14:41:32Z</time>
      </trkpt>
      <trkpt lat="47.88497" lon="-3.0479">
        <ele>101.56</ele>
        <time>2013-01-12T14:41:50Z</time>
      </trkpt>
      <trkpt lat="47.88509" lon="-3.04813">
        <ele>105.4</ele>
        <time>2013-01-12T14:42:02Z</time>
      </trkpt>
      <trkpt lat="47.88515" lon="-3.04847">
        <ele>106.36</ele>
        <time>2013-01-12T14:42:18Z</time>
      </trkpt>
      <trkpt lat="47.88522" lon="-3.04893">
        <ele>104.92</ele>
        <time>2013-01-12T14:42:30Z</time>
      </trkpt>
      <trkpt lat="47.88533" lon="-3.04962">
        <ele>101.56</ele>
        <time>2013-01-12T14:42:46Z</time>
      </trkpt>
      <trkpt lat="47.88546" lon="-3.05036">
        <ele>93.87</ele>
        <time>2013-01-12T14:43:01Z</time>
      </trkpt>
      <trkpt lat="47.88558" lon="-3.05124">
        <ele>88.1</ele>
        <time>2013-01-12T14:43:15Z</time>
      </trkpt>
      <trkpt lat="47.88576" lon="-3.0523">
        <ele>80.41</ele>
        <time>2013-01-12T14:43:31Z</time>
      </trkpt>
      <trkpt lat="47.88587" lon="-3.05313">
        <ele>76.08</ele>
        <time>2013-01-12T14:43:42Z</time>
      </trkpt>
      <trkpt lat="47.88599" lon="-3.05413">
        <ele>72.24</ele>
        <time>2013-01-12T14:43:55Z</time>
      </trkpt>
      <trkpt lat="47.88601" lon="-3.05444">
        <ele>72.24</ele>
        <time>2013-01-12T14:43:59Z</time>
      </trkpt>
      <trkpt lat="47.88596" lon="-3.05497">
        <ele>76.08</ele>
        <time>2013-01-12T14:44:06Z</time>
      </trkpt>
      <trkpt lat="47.88587" lon="-3.05564">
        <ele>76.56</ele>
        <time>2013-01-12T14:44:15Z</time>
      </trkpt>
      <trkpt lat="47.88584" lon="-3.05587">
        <ele>78</ele>
        <time>2013-01-12T14:44:18Z</time>
      </trkpt>
      <trkpt lat="47.88575" lon="-3.0567">
        <ele>78.97</ele>
        <time>2013-01-12T14:44:30Z</time>
      </trkpt>
      <trkpt lat="47.88565" lon="-3.05748">
        <ele>78</ele>
        <time>2013-01-12T14:44:41Z</time>
      </trkpt>
      <trkpt lat="47.8854" lon="-3.05859">
        <ele>74.64</ele>
        <time>2013-01-12T14:44:54Z</time>
      </trkpt>
      <trkpt lat="47.88526" lon="-3.05898">
        <ele>72.24</ele>
        <time>2013-01-12T14:44:58Z</time>
      </trkpt>
      <trkpt lat="47.88512" lon="-3.05926">
        <ele>69.83</ele>
        <time>2013-01-12T14:45:01Z</time>
      </trkpt>
      <trkpt lat="47.88487" lon="-3.05968">
        <ele>66.47</ele>
        <time>2013-01-12T14:45:06Z</time>
      </trkpt>
      <trkpt lat="47.8844" lon="-3.05959">
        <ele>63.58</ele>
        <time>2013-01-12T14:45:13Z</time>
      </trkpt>
      <trkpt lat="47.88409" lon="-3.05953">
        <ele>61.18</ele>
        <time>2013-01-12T14:45:18Z</time>
      </trkpt>
      <trkpt lat="47.88344" lon="-3.05972">
        <ele>58.78</ele>
        <time>2013-01-12T14:45:29Z</time>
      </trkpt>
      <trkpt lat="47.88278" lon="-3.0598">
        <ele>60.22</ele>
        <time>2013-01-12T14:45:41Z</time>
      </trkpt>
      <trkpt lat="47.88266" lon="-3.05976">
        <ele>63.1</ele>
        <time>2013-01-12T14:45:50Z</time>
      </trkpt>
      <trkpt lat="47.88267" lon="-3.05978">
        <ele>63.1</ele>
        <time>2013-01-12T14:46:27Z</time>
      </trkpt>
      <trkpt lat="47.88267" lon="-3.05977">
        <ele>63.1</ele>
        <time>2013-01-12T14:48:03Z</time>
      </trkpt>
      <trkpt lat="47.88267" lon="-3.05978">
        <ele>63.1</ele>
        <time>2013-01-12T14:49:13Z</time>
      </trkpt>
      <trkpt lat="47.88266" lon="-3.05976">
        <ele>63.1</ele>
        <time>2013-01-12T14:49:55Z</time>
      </trkpt>
      <trkpt lat="47.88252" lon="-3.05952">
        <ele>63.1</ele>
        <time>2013-01-12T14:50:10Z</time>
      </trkpt>
      <trkpt lat="47.88252" lon="-3.05949">
        <ele>63.1</ele>
        <time>2013-01-12T14:50:18Z</time>
      </trkpt>
      <trkpt lat="47.88261" lon="-3.05945">
        <ele>62.62</ele>
        <time>2013-01-12T14:50:28Z</time>
      </trkpt>
      <trkpt lat="47.88276" lon="-3.05937">
        <ele>64.07</ele>
        <time>2013-01-12T14:50:43Z</time>
      </trkpt>
      <trkpt lat="47.88282" lon="-3.05918">
        <ele>65.51</ele>
        <time>2013-01-12T14:50:54Z</time>
      </trkpt>
      <trkpt lat="47.88282" lon="-3.05901">
        <ele>67.91</ele>
        <time>2013-01-12T14:51:08Z</time>
      </trkpt>
      <trkpt lat="47.88279" lon="-3.05862">
        <ele>71.27</ele>
        <time>2013-01-12T14:51:23Z</time>
      </trkpt>
      <trkpt lat="47.88277" lon="-3.05831">
        <ele>76.56</ele>
        <time>2013-01-12T14:51:41Z</time>
      </trkpt>
      <trkpt lat="47.88268" lon="-3.05796">
        <ele>82.33</ele>
        <time>2013-01-12T14:52:02Z</time>
      </trkpt>
      <trkpt lat="47.88263" lon="-3.05772">
        <ele>86.18</ele>
        <time>2013-01-12T14:52:20Z</time>
      </trkpt>
      <trkpt lat="47.88262" lon="-3.05763">
        <ele>87.62</ele>
        <time>2013-01-12T14:52:27Z</time>
      </trkpt>
      <trkpt lat="47.88254" lon="-3.05726">
        <ele>87.62</ele>
        <time>2013-01-12T14:52:43Z</time>
      </trkpt>
      <trkpt lat="47.88248" lon="-3.05684">
        <ele>87.14</ele>
        <time>2013-01-12T14:52:59Z</time>
      </trkpt>
      <trkpt lat="47.8825" lon="-3.05661">
        <ele>87.62</ele>
        <time>2013-01-12T14:53:11Z</time>
      </trkpt>
      <trkpt lat="47.88255" lon="-3.05634">
        <ele>88.58</ele>
        <time>2013-01-12T14:53:23Z</time>
      </trkpt>
      <trkpt lat="47.88234" lon="-3.05604">
        <ele>86.18</ele>
        <time>2013-01-12T14:53:36Z</time>
      </trkpt>
      <trkpt lat="47.88215" lon="-3.05559">
        <ele>84.25</ele>
        <time>2013-01-12T14:53:51Z</time>
      </trkpt>
      <trkpt lat="47.88204" lon="-3.05545">
        <ele>83.77</ele>
        <time>2013-01-12T14:53:56Z</time>
      </trkpt>
      <trkpt lat="47.8817" lon="-3.0551">
        <ele>82.81</ele>
        <time>2013-01-12T14:54:08Z</time>
      </trkpt>
      <trkpt lat="47.88151" lon="-3.05441">
        <ele>84.25</ele>
        <time>2013-01-12T14:54:22Z</time>
      </trkpt>
      <trkpt lat="47.88132" lon="-3.05393">
        <ele>84.25</ele>
        <time>2013-01-12T14:54:29Z</time>
      </trkpt>
      <trkpt lat="47.88123" lon="-3.05367">
        <ele>84.25</ele>
        <time>2013-01-12T14:54:32Z</time>
      </trkpt>
      <trkpt lat="47.88115" lon="-3.05299">
        <ele>84.25</ele>
        <time>2013-01-12T14:54:44Z</time>
      </trkpt>
      <trkpt lat="47.88111" lon="-3.05271">
        <ele>84.25</ele>
        <time>2013-01-12T14:54:48Z</time>
      </trkpt>
      <trkpt lat="47.88104" lon="-3.05213">
        <ele>79.45</ele>
        <time>2013-01-12T14:54:57Z</time>
      </trkpt>
      <trkpt lat="47.88113" lon="-3.0516">
        <ele>73.68</ele>
        <time>2013-01-12T14:55:07Z</time>
      </trkpt>
      <trkpt lat="47.88127" lon="-3.05091">
        <ele>70.31</ele>
        <time>2013-01-12T14:55:21Z</time>
      </trkpt>
      <trkpt lat="47.88136" lon="-3.05064">
        <ele>70.31</ele>
        <time>2013-01-12T14:55:26Z</time>
      </trkpt>
      <trkpt lat="47.8816" lon="-3.04989">
        <ele>71.76</ele>
        <time>2013-01-12T14:55:41Z</time>
      </trkpt>
      <trkpt lat="47.88158" lon="-3.04925">
        <ele>69.35</ele>
        <time>2013-01-12T14:55:54Z</time>
      </trkpt>
      <trkpt lat="47.88123" lon="-3.04897">
        <ele>67.43</ele>
        <time>2013-01-12T14:56:00Z</time>
      </trkpt>
      <trkpt lat="47.88092" lon="-3.04876">
        <ele>65.51</ele>
        <time>2013-01-12T14:56:04Z</time>
      </trkpt>
      <trkpt lat="47.88049" lon="-3.04883">
        <ele>63.1</ele>
        <time>2013-01-12T14:56:09Z</time>
      </trkpt>
      <trkpt lat="47.87939" lon="-3.04972">
        <ele>58.78</ele>
        <time>2013-01-12T14:56:26Z</time>
      </trkpt>
      <trkpt lat="47.87854" lon="-3.0504">
        <ele>54.45</ele>
        <time>2013-01-12T14:56:41Z</time>
      </trkpt>
      <trkpt lat="47.87836" lon="-3.05017">
        <ele>53.97</ele>
        <time>2013-01-12T14:56:46Z</time>
      </trkpt>
      <trkpt lat="47.87829" lon="-3.0495">
        <ele>52.05</ele>
        <time>2013-01-12T14:56:54Z</time>
      </trkpt>
      <trkpt lat="47.8785" lon="-3.04912">
        <ele>50.13</ele>
        <time>2013-01-12T14:57:00Z</time>
      </trkpt>
      <trkpt lat="47.87924" lon="-3.04874">
        <ele>48.2</ele>
        <time>2013-01-12T14:57:12Z</time>
      </trkpt>
      <trkpt lat="47.87985" lon="-3.04843">
        <ele>52.53</ele>
        <time>2013-01-12T14:57:25Z</time>
      </trkpt>
      <trkpt lat="47.87997" lon="-3.04812">
        <ele>56.37</ele>
        <time>2013-01-12T14:57:33Z</time>
      </trkpt>
      <trkpt lat="47.88006" lon="-3.04803">
        <ele>57.34</ele>
        <time>2013-01-12T14:57:39Z</time>
      </trkpt>
      <trkpt lat="47.88013" lon="-3.04774">
        <ele>63.58</ele>
        <time>2013-01-12T14:57:52Z</time>
      </trkpt>
      <trkpt lat="47.88018" lon="-3.04735">
        <ele>64.07</ele>
        <time>2013-01-12T14:58:11Z</time>
      </trkpt>
      <trkpt lat="47.88022" lon="-3.0471">
        <ele>65.51</ele>
        <time>2013-01-12T14:58:25Z</time>
      </trkpt>
      <trkpt lat="47.88035" lon="-3.04673">
        <ele>62.14</ele>
        <time>2013-01-12T14:58:49Z</time>
      </trkpt>
      <trkpt lat="47.88036" lon="-3.04673">
        <ele>62.14</ele>
        <time>2013-01-12T14:58:50Z</time>
      </trkpt>
      <trkpt lat="47.88042" lon="-3.04673">
        <ele>61.18</ele>
        <time>2013-01-12T14:58:55Z</time>
      </trkpt>
      <trkpt lat="47.88051" lon="-3.04671">
        <ele>60.22</ele>
        <time>2013-01-12T14:59:02Z</time>
      </trkpt>
      <trkpt lat="47.88054" lon="-3.04664">
        <ele>59.26</ele>
        <time>2013-01-12T14:59:07Z</time>
      </trkpt>
      <trkpt lat="47.88051" lon="-3.04626">
        <ele>56.86</ele>
        <time>2013-01-12T14:59:27Z</time>
      </trkpt>
      <trkpt lat="47.88049" lon="-3.04603">
        <ele>55.89</ele>
        <time>2013-01-12T14:59:36Z</time>
      </trkpt>
      <trkpt lat="47.88053" lon="-3.04596">
        <ele>56.37</ele>
        <time>2013-01-12T14:59:40Z</time>
      </trkpt>
      <trkpt lat="47.88091" lon="-3.04574">
        <ele>59.74</ele>
        <time>2013-01-12T14:59:59Z</time>
      </trkpt>
      <trkpt lat="47.88118" lon="-3.04566">
        <ele>61.66</ele>
        <time>2013-01-12T15:00:16Z</time>
      </trkpt>
      <trkpt lat="47.88139" lon="-3.04553">
        <ele>63.58</ele>
        <time>2013-01-12T15:00:32Z</time>
      </trkpt>
      <trkpt lat="47.88143" lon="-3.04555">
        <ele>64.07</ele>
        <time>2013-01-12T15:00:35Z</time>
      </trkpt>
      <trkpt lat="47.88177" lon="-3.04558">
        <ele>65.03</ele>
        <time>2013-01-12T15:00:56Z</time>
      </trkpt>
      <trkpt lat="47.88191" lon="-3.0457">
        <ele>65.51</ele>
        <time>2013-01-12T15:01:09Z</time>
      </trkpt>
      <trkpt lat="47.88206" lon="-3.04589">
        <ele>66.95</ele>
        <time>2013-01-12T15:01:23Z</time>
      </trkpt>
      <trkpt lat="47.88212" lon="-3.04592">
        <ele>65.99</ele>
        <time>2013-01-12T15:01:27Z</time>
      </trkpt>
      <trkpt lat="47.88222" lon="-3.04591">
        <ele>64.55</ele>
        <time>2013-01-12T15:01:41Z</time>
      </trkpt>
      <trkpt lat="47.88242" lon="-3.0456">
        <ele>62.14</ele>
        <time>2013-01-12T15:02:12Z</time>
      </trkpt>
      <trkpt lat="47.88252" lon="-3.04535">
        <ele>60.7</ele>
        <time>2013-01-12T15:02:37Z</time>
      </trkpt>
      <trkpt lat="47.88258" lon="-3.04519">
        <ele>59.74</ele>
        <time>2013-01-12T15:02:59Z</time>
      </trkpt>
      <trkpt lat="47.88261" lon="-3.04503">
        <ele>58.78</ele>
        <time>2013-01-12T15:03:19Z</time>
      </trkpt>
      <trkpt lat="47.88275" lon="-3.04485">
        <ele>58.78</ele>
        <time>2013-01-12T15:03:36Z</time>
      </trkpt>
      <trkpt lat="47.88282" lon="-3.04465">
        <ele>55.89</ele>
        <time>2013-01-12T15:03:53Z</time>
      </trkpt>
      <trkpt lat="47.88293" lon="-3.04432">
        <ele>55.41</ele>
        <time>2013-01-12T15:04:17Z</time>
      </trkpt>
      <trkpt lat="47.883" lon="-3.0442">
        <ele>56.86</ele>
        <time>2013-01-12T15:04:37Z</time>
      </trkpt>
      <trkpt lat="47.88298" lon="-3.04423">
        <ele>59.26</ele>
        <time>2013-01-12T15:06:07Z</time>
      </trkpt>
      <trkpt lat="47.88298" lon="-3.0442">
        <ele>61.18</ele>
        <time>2013-01-12T15:07:16Z</time>
      </trkpt>
      <trkpt lat="47.88297" lon="-3.04423">
        <ele>63.1</ele>
        <time>2013-01-12T15:08:27Z</time>
      </trkpt>
      <trkpt lat="47.88319" lon="-3.04398">
        <ele>65.03</ele>
        <time>2013-01-12T15:08:49Z</time>
      </trkpt>
      <trkpt lat="47.88327" lon="-3.04376">
        <ele>66.95</ele>
        <time>2013-01-12T15:09:00Z</time>
      </trkpt>
      <trkpt lat="47.88325" lon="-3.04353">
        <ele>71.27</ele>
        <time>2013-01-12T15:09:13Z</time>
      </trkpt>
      <trkpt lat="47.88332" lon="-3.04307">
        <ele>76.08</ele>
        <time>2013-01-12T15:09:28Z</time>
      </trkpt>
      <trkpt lat="47.88338" lon="-3.04279">
        <ele>77.52</ele>
        <time>2013-01-12T15:09:34Z</time>
      </trkpt>
      <trkpt lat="47.88332" lon="-3.04169">
        <ele>80.89</ele>
        <time>2013-01-12T15:09:46Z</time>
      </trkpt>
      <trkpt lat="47.88312" lon="-3.04116">
        <ele>84.73</ele>
        <time>2013-01-12T15:09:56Z</time>
      </trkpt>
      <trkpt lat="47.88311" lon="-3.04064">
        <ele>86.66</ele>
        <time>2013-01-12T15:10:05Z</time>
      </trkpt>
      <trkpt lat="47.88309" lon="-3.04025">
        <ele>88.1</ele>
        <time>2013-01-12T15:10:11Z</time>
      </trkpt>
      <trkpt lat="47.88305" lon="-3.03976">
        <ele>88.58</ele>
        <time>2013-01-12T15:10:18Z</time>
      </trkpt>
      <trkpt lat="47.883" lon="-3.03921">
        <ele>85.21</ele>
        <time>2013-01-12T15:10:25Z</time>
      </trkpt>
      <trkpt lat="47.88294" lon="-3.03867">
        <ele>83.29</ele>
        <time>2013-01-12T15:10:32Z</time>
      </trkpt>
      <trkpt lat="47.883" lon="-3.03864">
        <ele>84.25</ele>
        <time>2013-01-12T15:10:39Z</time>
      </trkpt>
      <trkpt lat="47.88335" lon="-3.03911">
        <ele>80.41</ele>
        <time>2013-01-12T15:10:58Z</time>
      </trkpt>
      <trkpt lat="47.88369" lon="-3.03958">
        <ele>78</ele>
        <time>2013-01-12T15:11:18Z</time>
      </trkpt>
      <trkpt lat="47.88372" lon="-3.0396">
        <ele>78</ele>
        <time>2013-01-12T15:11:20Z</time>
      </trkpt>
      <trkpt lat="47.88383" lon="-3.03953">
        <ele>78</ele>
        <time>2013-01-12T15:11:28Z</time>
      </trkpt>
      <trkpt lat="47.88389" lon="-3.03961">
        <ele>79.45</ele>
        <time>2013-01-12T15:11:41Z</time>
      </trkpt>
      <trkpt lat="47.88412" lon="-3.03941">
        <ele>80.41</ele>
        <time>2013-01-12T15:12:35Z</time>
      </trkpt>
      <trkpt lat="47.8846" lon="-3.03897">
        <ele>79.45</ele>
        <time>2013-01-12T15:12:52Z</time>
      </trkpt>
      <trkpt lat="47.88492" lon="-3.0386">
        <ele>76.56</ele>
        <time>2013-01-12T15:13:04Z</time>
      </trkpt>
      <trkpt lat="47.88505" lon="-3.03822">
        <ele>78.48</ele>
        <time>2013-01-12T15:13:14Z</time>
      </trkpt>
      <trkpt lat="47.88517" lon="-3.03783">
        <ele>74.16</ele>
        <time>2013-01-12T15:13:27Z</time>
      </trkpt>
      <trkpt lat="47.88518" lon="-3.03775">
        <ele>73.68</ele>
        <time>2013-01-12T15:13:45Z</time>
      </trkpt>
      <trkpt lat="47.88529" lon="-3.03756">
        <ele>74.16</ele>
        <time>2013-01-12T15:14:04Z</time>
      </trkpt>
      <trkpt lat="47.88534" lon="-3.03731">
        <ele>77.52</ele>
        <time>2013-01-12T15:14:18Z</time>
      </trkpt>
      <trkpt lat="47.88549" lon="-3.037">
        <ele>82.33</ele>
        <time>2013-01-12T15:14:44Z</time>
      </trkpt>
      <trkpt lat="47.88553" lon="-3.03682">
        <ele>85.21</ele>
        <time>2013-01-12T15:15:00Z</time>
      </trkpt>
      <trkpt lat="47.88565" lon="-3.03648">
        <ele>87.62</ele>
        <time>2013-01-12T15:15:24Z</time>
      </trkpt>
      <trkpt lat="47.88556" lon="-3.03628">
        <ele>88.58</ele>
        <time>2013-01-12T15:15:43Z</time>
      </trkpt>
      <trkpt lat="47.88545" lon="-3.03605">
        <ele>92.42</ele>
        <time>2013-01-12T15:16:05Z</time>
      </trkpt>
      <trkpt lat="47.88553" lon="-3.03586">
        <ele>93.39</ele>
        <time>2013-01-12T15:16:15Z</time>
      </trkpt>
      <trkpt lat="47.88558" lon="-3.03586">
        <ele>92.42</ele>
        <time>2013-01-12T15:16:26Z</time>
      </trkpt>
      <trkpt lat="47.88565" lon="-3.03592">
        <ele>92.42</ele>
        <time>2013-01-12T15:16:33Z</time>
      </trkpt>
      <trkpt lat="47.88581" lon="-3.03582">
        <ele>93.39</ele>
        <time>2013-01-12T15:16:46Z</time>
      </trkpt>
      <trkpt lat="47.88597" lon="-3.03557">
        <ele>93.87</ele>
        <time>2013-01-12T15:17:00Z</time>
      </trkpt>
      <trkpt lat="47.88604" lon="-3.03517">
        <ele>94.83</ele>
        <time>2013-01-12T15:17:18Z</time>
      </trkpt>
      <trkpt lat="47.88622" lon="-3.03469">
        <ele>97.71</ele>
        <time>2013-01-12T15:17:43Z</time>
      </trkpt>
      <trkpt lat="47.88626" lon="-3.03434">
        <ele>100.6</ele>
        <time>2013-01-12T15:18:00Z</time>
      </trkpt>
      <trkpt lat="47.88634" lon="-3.03392">
        <ele>99.63</ele>
        <time>2013-01-12T15:18:19Z</time>
      </trkpt>
      <trkpt lat="47.88635" lon="-3.03389">
        <ele>99.63</ele>
        <time>2013-01-12T15:18:20Z</time>
      </trkpt>
      <trkpt lat="47.88665" lon="-3.0339">
        <ele>98.19</ele>
        <time>2013-01-12T15:18:31Z</time>
      </trkpt>
      <trkpt lat="47.88686" lon="-3.03381">
        <ele>97.71</ele>
        <time>2013-01-12T15:18:36Z</time>
      </trkpt>
      <trkpt lat="47.88697" lon="-3.03368">
        <ele>98.19</ele>
        <time>2013-01-12T15:18:40Z</time>
      </trkpt>
      <trkpt lat="47.88723" lon="-3.03293">
        <ele>97.23</ele>
        <time>2013-01-12T15:18:57Z</time>
      </trkpt>
      <trkpt lat="47.887" lon="-3.03215">
        <ele>101.08</ele>
        <time>2013-01-12T15:19:14Z</time>
      </trkpt>
      <trkpt lat="47.88677" lon="-3.03168">
        <ele>104.44</ele>
        <time>2013-01-12T15:19:30Z</time>
      </trkpt>
      <trkpt lat="47.8866" lon="-3.03133">
        <ele>108.29</ele>
        <time>2013-01-12T15:19:44Z</time>
      </trkpt>
      <trkpt lat="47.88643" lon="-3.03089">
        <ele>110.69</ele>
        <time>2013-01-12T15:20:00Z</time>
      </trkpt>
      <trkpt lat="47.88629" lon="-3.03049">
        <ele>113.57</ele>
        <time>2013-01-12T15:20:14Z</time>
      </trkpt>
      <trkpt lat="47.88606" lon="-3.03002">
        <ele>117.42</ele>
        <time>2013-01-12T15:20:30Z</time>
      </trkpt>
      <trkpt lat="47.88595" lon="-3.02968">
        <ele>116.94</ele>
        <time>2013-01-12T15:20:41Z</time>
      </trkpt>
      <trkpt lat="47.88615" lon="-3.02955">
        <ele>116.94</ele>
        <time>2013-01-12T15:20:53Z</time>
      </trkpt>
      <trkpt lat="47.8864" lon="-3.02958">
        <ele>116.46</ele>
        <time>2013-01-12T15:21:06Z</time>
      </trkpt>
      <trkpt lat="47.88645" lon="-3.02953">
        <ele>116.94</ele>
        <time>2013-01-12T15:21:21Z</time>
      </trkpt>
      <trkpt lat="47.88646" lon="-3.02956">
        <ele>116.94</ele>
        <time>2013-01-12T15:21:42Z</time>
      </trkpt>
      <trkpt lat="47.88646" lon="-3.02956">
        <ele>116.94</ele>
        <time>2013-01-12T15:22:01Z</time>
      </trkpt>
    </trkseg>
  </trk>
</gpx>